PWSweather.com
Personal Weather Stations
Station Observations
JOE4SPEED
Jupiter, Fl, Jupiter, FL 33458

Jupiter, FlJupiter, FL 33458

Lat: 26.9373, Lon: -80.1101

Elevation: 12

Station Type: Davis VP 2

http://www.joe4speed.com/wxindex.php

High Low Average
Temperature 89.3°F31.8°F 73.0°F22.8°F 77.5°F25.3°F
Dew Point 77.6°F25.3°F 70.2°F21.2°F 73.1°F22.8°F
Winds 6.9 mph W11.1 mph W Calm Calm 0.2 mph 0.3 mph
Wind Gusts 12.7 mph20.4 mph -- 0.6 mph1.0 mph
Humidity 93% 62% 87%
Pressure 30.07 in1018.30 in 29.99 in1015.60 in -
Precipitation 0.06 in1.50 in - -
Hour Temp Dew Point Humidity Winds Wind Gusts Pressure Precip Precip Rate Daily Precip Total
12:00 AM 74.8°F23.8°C 72.4°F22.4°C 92% Calm Calm -- 30.05 in1017.6 mb - 0.00 in0.0 mm 0.00 in0.0 mm
12:10 AM 74.7°F23.7°C 72.2°F22.3°C 92% Calm Calm -- 30.05 in1017.6 mb - 0.00 in0.0 mm 0.00 in0.0 mm
12:20 AM 74.5°F23.6°C 72.0°F22.2°C 92% Calm Calm -- 30.05 in1017.6 mb - 0.00 in0.0 mm 0.00 in0.0 mm
12:30 AM 74.4°F23.6°C 71.9°F22.2°C 92% Calm Calm -- 30.05 in1017.6 mb - 0.00 in0.0 mm 0.00 in0.0 mm
12:40 AM 74.3°F23.5°C 71.8°F22.1°C 92% Calm Calm -- 30.04 in1017.3 mb - 0.00 in0.0 mm 0.00 in0.0 mm
12:50 AM 74.2°F23.4°C 71.7°F22.1°C 92% Calm Calm -- 30.04 in1017.3 mb - 0.00 in0.0 mm 0.00 in0.0 mm
01:00 AM 74.1°F23.4°C 71.6°F22.0°C 92% Calm Calm -- 30.03 in1016.9 mb - 0.00 in0.0 mm 0.00 in0.0 mm
01:10 AM 74.1°F23.4°C 71.6°F22.0°C 92% Calm Calm -- 30.03 in1016.9 mb - 0.00 in0.0 mm 0.00 in0.0 mm
01:20 AM 74.2°F23.4°C 72.0°F22.2°C 93% Calm Calm -- 30.03 in1016.9 mb - 0.00 in0.0 mm 0.00 in0.0 mm
01:30 AM 74.2°F23.4°C 71.7°F22.1°C 92% Calm Calm -- 30.03 in1016.9 mb - 0.00 in0.0 mm 0.00 in0.0 mm
01:40 AM 74.2°F23.4°C 72.0°F22.2°C 93% Calm Calm -- 30.03 in1016.9 mb - 0.00 in0.0 mm 0.00 in0.0 mm
01:50 AM 74.1°F23.4°C 71.6°F22.0°C 92% Calm Calm -- 30.03 in1016.9 mb - 0.00 in0.0 mm 0.00 in0.0 mm
02:00 AM 74.1°F23.4°C 71.6°F22.0°C 92% Calm Calm -- 30.03 in1016.9 mb - 0.00 in0.0 mm 0.00 in0.0 mm
02:10 AM 74.1°F23.4°C 71.6°F22.0°C 92% Calm Calm -- 30.02 in1016.6 mb - 0.00 in0.0 mm 0.00 in0.0 mm
02:20 AM 74.0°F23.3°C 71.5°F21.9°C 92% Calm Calm -- 30.02 in1016.6 mb - 0.00 in0.0 mm 0.00 in0.0 mm
02:30 AM 73.9°F23.3°C 71.4°F21.9°C 92% Calm Calm -- 30.01 in1016.3 mb - 0.00 in0.0 mm 0.00 in0.0 mm
02:40 AM 73.7°F23.2°C 71.6°F22.0°C 93% Calm Calm -- 30.01 in1016.3 mb - 0.00 in0.0 mm 0.00 in0.0 mm
02:50 AM 73.7°F23.2°C 71.5°F21.9°C 93% Calm Calm -- 30.01 in1016.3 mb - 0.00 in0.0 mm 0.00 in0.0 mm
03:00 AM 73.7°F23.2°C 71.5°F21.9°C 93% Calm Calm -- 30.00 in1015.9 mb - 0.00 in0.0 mm 0.00 in0.0 mm
03:10 AM 73.7°F23.2°C 71.5°F21.9°C 93% Calm Calm -- 30.00 in1015.9 mb - 0.00 in0.0 mm 0.00 in0.0 mm
03:20 AM 73.7°F23.2°C 71.5°F21.9°C 93% Calm Calm -- 30.00 in1015.9 mb - 0.00 in0.0 mm 0.00 in0.0 mm
03:30 AM 73.8°F23.2°C 71.6°F22.0°C 93% Calm Calm -- 30.00 in1015.9 mb - 0.00 in0.0 mm 0.00 in0.0 mm
03:40 AM 73.8°F23.2°C 71.6°F22.0°C 93% Calm Calm -- 29.99 in1015.6 mb - 0.00 in0.0 mm 0.00 in0.0 mm
03:50 AM 73.7°F23.2°C 71.5°F21.9°C 93% Calm Calm -- 30.00 in1015.9 mb - 0.00 in0.0 mm 0.00 in0.0 mm
04:00 AM 73.6°F23.1°C 71.4°F21.9°C 93% Calm Calm -- 30.00 in1015.9 mb - 0.00 in0.0 mm 0.00 in0.0 mm
04:10 AM 73.5°F23.1°C 71.4°F21.9°C 93% Calm Calm -- 30.00 in1015.9 mb - 0.00 in0.0 mm 0.00 in0.0 mm
04:20 AM 73.5°F23.1°C 71.4°F21.9°C 93% Calm Calm -- 30.00 in1015.9 mb - 0.00 in0.0 mm 0.00 in0.0 mm
04:30 AM 73.4°F23.0°C 71.3°F21.8°C 93% Calm Calm -- 30.00 in1015.9 mb - 0.00 in0.0 mm 0.00 in0.0 mm
04:40 AM 73.3°F22.9°C 71.2°F21.8°C 93% Calm Calm -- 30.01 in1016.3 mb - 0.00 in0.0 mm 0.00 in0.0 mm
04:50 AM 73.3°F22.9°C 71.2°F21.8°C 93% Calm Calm -- 30.01 in1016.3 mb - 0.00 in0.0 mm 0.00 in0.0 mm
05:00 AM 73.3°F22.9°C 71.2°F21.8°C 93% Calm Calm -- 30.01 in1016.3 mb - 0.00 in0.0 mm 0.00 in0.0 mm
05:10 AM 73.2°F22.9°C 71.1°F21.7°C 93% Calm Calm -- 30.01 in1016.3 mb - 0.00 in0.0 mm 0.00 in0.0 mm
05:20 AM 73.2°F22.9°C 71.1°F21.7°C 93% Calm Calm -- 30.01 in1016.3 mb - 0.00 in0.0 mm 0.00 in0.0 mm
05:30 AM 73.2°F22.9°C 71.1°F21.7°C 93% Calm Calm -- 30.01 in1016.3 mb - 0.00 in0.0 mm 0.00 in0.0 mm
05:40 AM 73.2°F22.9°C 71.1°F21.7°C 93% Calm Calm -- 30.01 in1016.3 mb - 0.00 in0.0 mm 0.00 in0.0 mm
05:50 AM 73.2°F22.9°C 71.1°F21.7°C 93% Calm Calm -- 30.01 in1016.3 mb - 0.00 in0.0 mm 0.00 in0.0 mm
06:00 AM 73.2°F22.9°C 71.1°F21.7°C 93% Calm Calm -- 30.01 in1016.3 mb - 0.00 in0.0 mm 0.00 in0.0 mm
06:10 AM 73.1°F22.8°C 71.0°F21.7°C 93% Calm Calm -- 30.01 in1016.3 mb - 0.00 in0.0 mm 0.00 in0.0 mm
06:20 AM 73.1°F22.8°C 70.9°F21.6°C 93% Calm Calm -- 30.02 in1016.6 mb - 0.00 in0.0 mm 0.00 in0.0 mm
06:30 AM 73.0°F22.8°C 70.9°F21.6°C 93% Calm Calm -- 30.02 in1016.6 mb - 0.00 in0.0 mm 0.00 in0.0 mm
06:40 AM 73.0°F22.8°C 70.8°F21.6°C 93% Calm Calm -- 30.02 in1016.6 mb - 0.00 in0.0 mm 0.00 in0.0 mm
06:50 AM 73.0°F22.8°C 70.8°F21.6°C 93% Calm Calm -- 30.02 in1016.6 mb - 0.00 in0.0 mm 0.00 in0.0 mm
07:00 AM 73.0°F22.8°C 70.9°F21.6°C 93% Calm Calm -- 30.02 in1016.6 mb - 0.00 in0.0 mm 0.00 in0.0 mm
07:10 AM 73.0°F22.8°C 70.9°F21.6°C 93% Calm Calm -- 30.02 in1016.6 mb - 0.00 in0.0 mm 0.00 in0.0 mm
07:20 AM 73.1°F22.8°C 71.0°F21.7°C 93% Calm Calm -- 30.02 in1016.6 mb - 0.00 in0.0 mm 0.00 in0.0 mm
07:30 AM 73.4°F23.0°C 71.3°F21.8°C 93% Calm Calm -- 30.02 in1016.6 mb - 0.00 in0.0 mm 0.00 in0.0 mm
07:40 AM 73.5°F23.1°C 71.4°F21.9°C 93% Calm Calm -- 30.02 in1016.6 mb - 0.00 in0.0 mm 0.00 in0.0 mm
07:50 AM 74.0°F23.3°C 71.9°F22.2°C 93% Calm Calm -- 30.02 in1016.6 mb - 0.00 in0.0 mm 0.00 in0.0 mm
08:00 AM 74.7°F23.7°C 72.5°F22.5°C 93% Calm Calm -- 30.02 in1016.6 mb - 0.00 in0.0 mm 0.00 in0.0 mm
08:10 AM 75.3°F24.1°C 73.1°F22.8°C 93% Calm Calm -- 30.03 in1016.9 mb - 0.00 in0.0 mm 0.00 in0.0 mm
08:20 AM 75.7°F24.3°C 73.6°F23.1°C 93% Calm Calm -- 30.03 in1016.9 mb - 0.00 in0.0 mm 0.00 in0.0 mm
08:30 AM 76.0°F24.4°C 73.8°F23.2°C 93% Calm Calm -- 30.04 in1017.3 mb - 0.00 in0.0 mm 0.00 in0.0 mm
08:40 AM 76.4°F24.7°C 74.2°F23.4°C 93% Calm Calm -- 30.04 in1017.3 mb - 0.00 in0.0 mm 0.00 in0.0 mm
08:50 AM 76.4°F24.7°C 74.2°F23.4°C 93% Calm Calm -- 30.04 in1017.3 mb - 0.00 in0.0 mm 0.00 in0.0 mm
09:00 AM 76.5°F24.7°C 74.3°F23.5°C 93% Calm Calm -- 30.04 in1017.3 mb - 0.00 in0.0 mm 0.00 in0.0 mm
09:10 AM 76.7°F24.8°C 74.6°F23.7°C 93% Calm Calm -- 30.05 in1017.6 mb - 0.00 in0.0 mm 0.00 in0.0 mm
09:20 AM 77.2°F25.1°C 75.1°F23.9°C 93% Calm Calm -- 30.05 in1017.6 mb - 0.00 in0.0 mm 0.00 in0.0 mm
09:30 AM 77.2°F25.1°C 74.7°F23.7°C 92% Calm Calm -- 30.05 in1017.6 mb - 0.00 in0.0 mm 0.00 in0.0 mm
09:40 AM 77.3°F25.2°C 74.8°F23.8°C 92% Calm Calm -- 30.05 in1017.6 mb - 0.00 in0.0 mm 0.00 in0.0 mm
09:50 AM 77.5°F25.3°C 74.9°F23.8°C 92% Calm Calm -- 30.05 in1017.6 mb - 0.00 in0.0 mm 0.00 in0.0 mm
10:00 AM 78.0°F25.6°C 75.5°F24.2°C 92% Calm Calm -- 30.06 in1017.9 mb - 0.00 in0.0 mm 0.00 in0.0 mm
10:10 AM 78.1°F25.6°C 75.6°F24.2°C 92% Calm Calm -- 30.06 in1017.9 mb - 0.00 in0.0 mm 0.00 in0.0 mm
10:20 AM 80.5°F26.9°C 77.6°F25.3°C 91% Calm Calm -- 30.06 in1017.9 mb - 0.00 in0.0 mm 0.00 in0.0 mm
10:30 AM 81.8°F27.7°C 77.6°F25.3°C 87% Calm Calm -- 30.07 in1018.3 mb - 0.00 in0.0 mm 0.00 in0.0 mm
10:40 AM 82.9°F28.3°C 77.2°F25.1°C 83% Calm Calm -- 30.07 in1018.3 mb - 0.00 in0.0 mm 0.00 in0.0 mm
10:50 AM 82.9°F28.3°C 76.8°F24.9°C 82% Calm Calm -- 30.07 in1018.3 mb - 0.00 in0.0 mm 0.00 in0.0 mm
11:00 AM 82.8°F28.2°C 76.7°F24.8°C 82% Calm Calm -- 30.07 in1018.3 mb - 0.00 in0.0 mm 0.00 in0.0 mm
11:10 AM 83.8°F28.8°C 77.0°F25.0°C 80% Calm Calm -- 30.07 in1018.3 mb - 0.00 in0.0 mm 0.00 in0.0 mm
11:20 AM 83.4°F28.6°C 76.2°F24.6°C 79% Calm Calm -- 30.07 in1018.3 mb - 0.00 in0.0 mm 0.00 in0.0 mm
11:30 AM 83.5°F28.6°C 75.9°F24.4°C 78% Calm Calm -- 30.07 in1018.3 mb - 0.00 in0.0 mm 0.00 in0.0 mm
11:40 AM 84.4°F29.1°C 76.0°F24.4°C 76% Calm Calm -- 30.07 in1018.3 mb - 0.00 in0.0 mm 0.00 in0.0 mm
11:50 AM 85.2°F29.6°C 76.4°F24.7°C 75% Calm Calm 2.3 mph3.7 kmh 30.06 in1017.9 mb - 0.00 in0.0 mm 0.00 in0.0 mm
12:00 PM 85.6°F29.8°C 76.4°F24.7°C 74% Calm Calm -- 30.06 in1017.9 mb - 0.00 in0.0 mm 0.00 in0.0 mm
12:10 PM 86.3°F30.2°C 77.1°F25.1°C 74% Calm Calm 2.3 mph3.7 kmh 30.06 in1017.9 mb - 0.00 in0.0 mm 0.00 in0.0 mm
12:20 PM 87.1°F30.6°C 76.5°F24.7°C 71% Calm Calm 1.2 mph1.9 kmh 30.06 in1017.9 mb - 0.00 in0.0 mm 0.00 in0.0 mm
12:30 PM 87.4°F30.8°C 77.3°F25.2°C 72% Calm Calm -- 30.05 in1017.6 mb - 0.00 in0.0 mm 0.00 in0.0 mm
12:40 PM 87.4°F30.8°C 76.4°F24.7°C 70% Calm Calm -- 30.05 in1017.6 mb - 0.00 in0.0 mm 0.00 in0.0 mm
12:50 PM 87.6°F30.9°C 76.2°F24.6°C 69% Calm Calm -- 30.05 in1017.6 mb - 0.00 in0.0 mm 0.00 in0.0 mm
01:00 PM 87.9°F31.1°C 76.9°F24.9°C 70% Calm Calm 1.2 mph1.9 kmh 30.05 in1017.6 mb - 0.00 in0.0 mm 0.00 in0.0 mm
01:10 PM 87.9°F31.1°C 75.6°F24.2°C 67% Calm Calm 1.2 mph1.9 kmh 30.04 in1017.3 mb - 0.00 in0.0 mm 0.00 in0.0 mm
01:20 PM 88.3°F31.3°C 75.1°F23.9°C 65% Calm Calm -- 30.04 in1017.3 mb - 0.00 in0.0 mm 0.00 in0.0 mm
01:30 PM 89.3°F31.8°C 75.5°F24.2°C 64% 2.3 mph SSE3.7 kmh SSE 5.8 mph9.3 kmh 30.03 in1016.9 mb - 0.00 in0.0 mm 0.00 in0.0 mm
01:40 PM 88.9°F31.6°C 75.1°F23.9°C 64% Calm Calm -- 30.03 in1016.9 mb - 0.00 in0.0 mm 0.00 in0.0 mm
01:50 PM 89.0°F31.7°C 74.3°F23.5°C 62% Calm Calm -- 30.02 in1016.6 mb - 0.00 in0.0 mm 0.00 in0.0 mm
02:00 PM 87.9°F31.1°C 75.1°F23.9°C 66% Calm Calm -- 30.02 in1016.6 mb - 0.00 in0.0 mm 0.00 in0.0 mm
02:10 PM 87.0°F30.6°C 74.7°F23.7°C 67% Calm Calm -- 30.02 in1016.6 mb - 0.01 in0.3 mm 0.01 in0.3 mm
02:20 PM 84.0°F28.9°C 75.6°F24.2°C 76% 3.5 mph SE5.6 kmh SE 6.9 mph11.1 kmh 30.02 in1016.6 mb - 0.02 in0.5 mm 0.02 in0.5 mm
02:30 PM 82.0°F27.8°C 74.8°F23.8°C 79% 1.2 mph SE1.9 kmh SE 3.5 mph5.6 kmh 30.03 in1016.9 mb - 0.01 in0.3 mm 0.03 in0.8 mm
02:40 PM 81.6°F27.6°C 75.6°F24.2°C 82% Calm Calm 1.2 mph1.9 kmh 30.02 in1016.6 mb - 0.00 in0.0 mm 0.03 in0.8 mm
02:50 PM 81.9°F27.7°C 76.6°F24.8°C 84% Calm Calm 1.2 mph1.9 kmh 30.02 in1016.6 mb - 0.00 in0.0 mm 0.03 in0.8 mm
03:00 PM 81.9°F27.7°C 76.3°F24.6°C 83% Calm Calm -- 30.03 in1016.9 mb - 0.00 in0.0 mm 0.03 in0.8 mm
03:10 PM 82.0°F27.8°C 75.6°F24.2°C 81% 4.6 mph WSW7.4 kmh WSW 12.7 mph20.4 kmh 30.05 in1017.6 mb - 0.00 in0.0 mm 0.03 in0.8 mm
03:20 PM 79.1°F26.2°C 71.2°F21.8°C 77% 6.9 mph W11.1 kmh W 11.5 mph18.5 kmh 30.05 in1017.6 mb - 0.00 in0.0 mm 0.03 in0.8 mm
03:30 PM 77.4°F25.2°C 70.3°F21.3°C 79% 5.8 mph NW9.3 kmh NW 11.5 mph18.5 kmh 30.05 in1017.6 mb - 0.00 in0.0 mm 0.03 in0.8 mm
03:40 PM 76.3°F24.6°C 70.4°F21.3°C 82% 3.5 mph NW5.6 kmh NW 4.6 mph7.4 kmh 30.03 in1016.9 mb - 0.00 in0.0 mm 0.03 in0.8 mm
03:50 PM 75.7°F24.3°C 70.2°F21.2°C 83% Calm Calm -- 30.03 in1016.9 mb - 0.00 in0.0 mm 0.03 in0.8 mm
04:00 PM 76.0°F24.4°C 71.2°F21.8°C 85% Calm Calm -- 30.02 in1016.6 mb - 0.00 in0.0 mm 0.03 in0.8 mm
04:10 PM 75.9°F24.4°C 70.4°F21.3°C 83% Calm Calm -- 30.02 in1016.6 mb - 0.00 in0.0 mm 0.03 in0.8 mm
04:20 PM 76.5°F24.7°C 70.9°F21.6°C 83% 1.2 mph NW1.9 kmh NW 2.3 mph3.7 kmh 30.02 in1016.6 mb - 0.00 in0.0 mm 0.03 in0.8 mm
04:30 PM 76.9°F24.9°C 71.0°F21.7°C 82% 1.2 mph W1.9 kmh W 4.6 mph7.4 kmh 30.02 in1016.6 mb - 0.00 in0.0 mm 0.03 in0.8 mm
04:40 PM 77.4°F25.2°C 71.1°F21.7°C 81% Calm Calm -- 30.02 in1016.6 mb - 0.00 in0.0 mm 0.03 in0.8 mm
04:50 PM 77.9°F25.5°C 71.2°F21.8°C 80% 1.2 mph W1.9 kmh W 3.5 mph5.6 kmh 30.02 in1016.6 mb - 0.00 in0.0 mm 0.03 in0.8 mm
05:00 PM 78.0°F25.6°C 71.3°F21.8°C 80% Calm Calm -- 30.02 in1016.6 mb - 0.00 in0.0 mm 0.03 in0.8 mm
05:10 PM 78.2°F25.7°C 71.2°F21.8°C 79% Calm Calm -- 30.01 in1016.3 mb - 0.00 in0.0 mm 0.03 in0.8 mm
05:20 PM 78.2°F25.7°C 71.2°F21.8°C 79% Calm Calm -- 30.02 in1016.6 mb - 0.00 in0.0 mm 0.03 in0.8 mm
05:30 PM 78.2°F25.7°C 71.5°F21.9°C 80% Calm Calm -- 30.02 in1016.6 mb - 0.00 in0.0 mm 0.03 in0.8 mm
05:40 PM 78.0°F25.6°C 72.1°F22.3°C 82% Calm Calm -- 30.02 in1016.6 mb - 0.01 in0.3 mm 0.04 in1.0 mm
05:50 PM 77.8°F25.4°C 72.2°F22.3°C 83% Calm Calm -- 30.03 in1016.9 mb - 0.00 in0.0 mm 0.04 in1.0 mm
06:00 PM 77.6°F25.3°C 72.4°F22.4°C 84% Calm Calm -- 30.02 in1016.6 mb - 0.01 in0.3 mm 0.05 in1.3 mm
06:10 PM 77.5°F25.3°C 72.7°F22.6°C 85% Calm Calm -- 30.02 in1016.6 mb - 0.00 in0.0 mm 0.05 in1.3 mm
06:20 PM 77.6°F25.3°C 73.1°F22.8°C 86% Calm Calm -- 30.03 in1016.9 mb - 0.00 in0.0 mm 0.05 in1.3 mm
06:30 PM 77.6°F25.3°C 73.1°F22.8°C 86% Calm Calm -- 30.03 in1016.9 mb - 0.00 in0.0 mm 0.05 in1.3 mm
06:40 PM 77.5°F25.3°C 73.3°F22.9°C 87% Calm Calm -- 30.04 in1017.3 mb - 0.00 in0.0 mm 0.05 in1.3 mm
06:50 PM 77.4°F25.2°C 73.2°F22.9°C 87% Calm Calm -- 30.04 in1017.3 mb - 0.00 in0.0 mm 0.05 in1.3 mm
07:00 PM 77.3°F25.2°C 73.1°F22.8°C 87% Calm Calm -- 30.04 in1017.3 mb - 0.00 in0.0 mm 0.05 in1.3 mm
07:10 PM 77.3°F25.2°C 73.5°F23.1°C 88% 1.2 mph E1.9 kmh E 2.3 mph3.7 kmh 30.03 in1016.9 mb - 0.00 in0.0 mm 0.05 in1.3 mm
07:20 PM 77.1°F25.1°C 73.3°F22.9°C 88% Calm Calm -- 30.04 in1017.3 mb - 0.00 in0.0 mm 0.05 in1.3 mm
07:30 PM 77.0°F25.0°C 73.2°F22.9°C 88% Calm Calm -- 30.04 in1017.3 mb - 0.00 in0.0 mm 0.05 in1.3 mm
07:40 PM 76.9°F24.9°C 73.1°F22.8°C 88% Calm Calm -- 30.04 in1017.3 mb - 0.00 in0.0 mm 0.05 in1.3 mm
07:50 PM 76.7°F24.8°C 72.9°F22.7°C 88% Calm Calm -- 30.04 in1017.3 mb - 0.00 in0.0 mm 0.05 in1.3 mm
08:00 PM 76.6°F24.8°C 72.8°F22.7°C 88% Calm Calm -- 30.05 in1017.6 mb - 0.00 in0.0 mm 0.05 in1.3 mm
08:10 PM 76.7°F24.8°C 73.2°F22.9°C 89% Calm Calm -- 30.05 in1017.6 mb - 0.00 in0.0 mm 0.05 in1.3 mm
08:20 PM 76.7°F24.8°C 73.2°F22.9°C 89% Calm Calm -- 30.05 in1017.6 mb - 0.00 in0.0 mm 0.05 in1.3 mm
08:30 PM 76.8°F24.9°C 73.3°F22.9°C 89% Calm Calm -- 30.05 in1017.6 mb - 0.00 in0.0 mm 0.05 in1.3 mm
08:40 PM 76.7°F24.8°C 73.2°F22.9°C 89% Calm Calm -- 30.05 in1017.6 mb - 0.00 in0.0 mm 0.05 in1.3 mm
08:50 PM 76.7°F24.8°C 73.2°F22.9°C 89% Calm Calm -- 30.06 in1017.9 mb - 0.00 in0.0 mm 0.05 in1.3 mm
09:00 PM 76.8°F24.9°C 73.3°F22.9°C 89% Calm Calm -- 30.06 in1017.9 mb - 0.00 in0.0 mm 0.05 in1.3 mm
09:10 PM 76.8°F24.9°C 73.6°F23.1°C 90% Calm Calm -- 30.06 in1017.9 mb - 0.00 in0.0 mm 0.05 in1.3 mm
09:20 PM 76.8°F24.9°C 73.6°F23.1°C 90% Calm Calm -- 30.06 in1017.9 mb - 0.00 in0.0 mm 0.05 in1.3 mm
09:30 PM 76.7°F24.8°C 73.5°F23.1°C 90% Calm Calm -- 30.06 in1017.9 mb - 0.00 in0.0 mm 0.05 in1.3 mm
09:40 PM 76.6°F24.8°C 73.4°F23.0°C 90% Calm Calm -- 30.06 in1017.9 mb - 0.00 in0.0 mm 0.05 in1.3 mm
09:50 PM 76.4°F24.7°C 73.2°F22.9°C 90% Calm Calm -- 30.06 in1017.9 mb - 0.00 in0.0 mm 0.05 in1.3 mm
10:00 PM 76.2°F24.6°C 73.1°F22.8°C 90% Calm Calm -- 30.06 in1017.9 mb - 0.00 in0.0 mm 0.05 in1.3 mm
10:10 PM 76.2°F24.6°C 73.0°F22.8°C 90% Calm Calm -- 30.06 in1017.9 mb - 0.00 in0.0 mm 0.05 in1.3 mm
10:20 PM 76.1°F24.5°C 73.0°F22.8°C 90% Calm Calm -- 30.07 in1018.3 mb - 0.00 in0.0 mm 0.05 in1.3 mm
10:30 PM 76.0°F24.4°C 72.9°F22.7°C 90% Calm Calm -- 30.06 in1017.9 mb - 0.00 in0.0 mm 0.05 in1.3 mm
10:40 PM 75.9°F24.4°C 72.8°F22.7°C 90% Calm Calm -- 30.06 in1017.9 mb - 0.00 in0.0 mm 0.05 in1.3 mm
10:50 PM 75.8°F24.3°C 72.7°F22.6°C 90% Calm Calm -- 30.06 in1017.9 mb - 0.00 in0.0 mm 0.05 in1.3 mm
11:00 PM 75.7°F24.3°C 72.6°F22.6°C 90% Calm Calm -- 30.06 in1017.9 mb - 0.00 in0.0 mm 0.05 in1.3 mm
11:10 PM 75.9°F24.4°C 72.7°F22.6°C 90% Calm Calm -- 30.06 in1017.9 mb - 0.00 in0.0 mm 0.05 in1.3 mm
11:20 PM 75.9°F24.4°C 72.7°F22.6°C 90% Calm Calm -- 30.07 in1018.3 mb - 0.00 in0.0 mm 0.05 in1.3 mm
11:30 PM 75.8°F24.3°C 72.6°F22.6°C 90% Calm Calm -- 30.07 in1018.3 mb - 0.00 in0.0 mm 0.05 in1.3 mm
11:40 PM 75.7°F24.3°C 72.6°F22.6°C 90% Calm Calm -- 30.06 in1017.9 mb - 0.00 in0.0 mm 0.05 in1.3 mm
11:50 PM 75.7°F24.3°C 72.6°F22.6°C 90% Calm Calm -- 30.06 in1017.9 mb - 0.00 in0.0 mm 0.05 in1.3 mm